createdAt,value
2023-05-06T00:00:20.916Z,10.92
2023-05-06T00:02:48.518Z,10.87
2023-05-06T00:05:18.842Z,10.87
2023-05-06T00:07:46.414Z,10.85
2023-05-06T00:10:14.015Z,10.84
2023-05-06T00:12:41.120Z,10.99
2023-05-06T00:15:08.842Z,11.17
2023-05-06T00:17:36.575Z,11.12
2023-05-06T00:20:04.083Z,10.97
2023-05-06T00:22:31.199Z,10.99
2023-05-06T00:24:58.639Z,11.02
2023-05-06T00:27:25.755Z,10.96
2023-05-06T00:29:52.869Z,10.86
2023-05-06T00:32:20.366Z,10.82
2023-05-06T00:34:48.072Z,10.77
2023-05-06T00:37:15.218Z,10.70
2023-05-06T00:39:42.586Z,10.67
2023-05-06T00:42:09.715Z,10.65
2023-05-06T00:44:36.804Z,10.64
2023-05-06T00:47:04.706Z,10.61
2023-05-06T00:49:32.076Z,10.69
2023-05-06T00:51:59.658Z,10.63
2023-05-06T00:54:27.663Z,10.57
2023-05-06T00:56:55.109Z,10.55
2023-05-06T00:59:23.149Z,10.53
2023-05-06T01:01:52.236Z,10.53
2023-05-06T01:04:20.224Z,10.50
2023-05-06T01:07:02.966Z,10.53
2023-05-06T01:09:42.920Z,10.51
2023-05-06T01:12:40.134Z,10.52
2023-05-06T01:15:17.347Z,10.50
2023-05-06T01:17:46.614Z,10.48
2023-05-06T01:20:15.258Z,10.47
2023-05-06T01:22:42.396Z,10.43
2023-05-06T01:25:19.494Z,10.45
2023-05-06T01:27:48.680Z,10.42
2023-05-06T01:30:18.103Z,10.55
2023-05-06T01:33:23.430Z,10.59
2023-05-06T01:35:53.720Z,10.72
2023-05-06T01:38:34.786Z,10.70
2023-05-06T01:41:03.006Z,10.52
2023-05-06T01:43:38.190Z,10.61
2023-05-06T01:46:06.950Z,10.58
2023-05-06T01:48:37.532Z,10.49
2023-05-06T01:51:04.840Z,10.38
2023-05-06T01:53:33.260Z,10.34
2023-05-06T01:56:01.127Z,10.28
2023-05-06T01:58:28.368Z,10.23
2023-05-06T02:00:55.792Z,10.19
2023-05-06T02:03:23.293Z,10.15
2023-05-06T02:05:50.496Z,10.18
2023-05-06T02:08:17.703Z,10.17
2023-05-06T02:10:45.621Z,10.12
2023-05-06T02:13:12.900Z,10.08
2023-05-06T02:15:40.045Z,10.22
2023-05-06T02:18:08.427Z,10.28
2023-05-06T02:20:35.503Z,10.29
2023-05-06T02:23:03.201Z,10.35
2023-05-06T02:25:31.337Z,10.30
2023-05-06T02:27:58.484Z,10.24
2023-05-06T02:30:25.612Z,10.20
2023-05-06T02:32:52.968Z,10.15
2023-05-06T02:35:20.260Z,10.05
2023-05-06T02:37:47.534Z,10.06
2023-05-06T02:40:15.136Z,10.03
2023-05-06T02:42:42.284Z,10.02
2023-05-06T02:45:10.127Z,10.02
2023-05-06T02:47:37.745Z,10.01
2023-05-06T02:50:05.313Z,9.98
2023-05-06T02:52:33.412Z,9.95
2023-05-06T02:55:01.390Z,9.99
2023-05-06T02:57:28.652Z,10.24
2023-05-06T02:59:55.939Z,10.26
2023-05-06T03:02:23.359Z,10.20
2023-05-06T03:04:51.117Z,10.08
2023-05-06T03:07:18.405Z,10.01
2023-05-06T03:09:45.815Z,9.98
2023-05-06T03:12:12.949Z,9.95
2023-05-06T03:14:40.419Z,9.97
2023-05-06T03:17:07.876Z,10.02
2023-05-06T03:19:35.738Z,10.13
2023-05-06T03:22:03.889Z,10.07
2023-05-06T03:24:32.547Z,10.03
2023-05-06T03:26:59.878Z,10.03
2023-05-06T03:29:27.110Z,10.03
2023-05-06T03:31:57.839Z,10.04
2023-05-06T03:34:26.258Z,10.10
2023-05-06T03:36:53.316Z,10.19
2023-05-06T03:39:21.161Z,10.33
2023-05-06T03:41:48.501Z,10.39
2023-05-06T03:44:16.111Z,10.45
2023-05-06T03:46:44.080Z,10.51
2023-05-06T03:49:11.391Z,10.61
2023-05-06T03:51:39.190Z,10.64
2023-05-06T03:54:06.813Z,10.74
2023-05-06T03:56:34.498Z,10.80
2023-05-06T03:59:01.665Z,10.86
2023-05-06T04:01:29.417Z,10.98
2023-05-06T04:03:57.082Z,11.08
2023-05-06T04:06:25.995Z,11.19
2023-05-06T04:08:53.527Z,11.31
2023-05-06T04:11:21.112Z,11.45
2023-05-06T04:13:48.476Z,11.56
2023-05-06T04:16:16.544Z,11.68
2023-05-06T04:18:44.481Z,11.82
2023-05-06T04:21:14.726Z,11.97
2023-05-06T04:23:42.751Z,12.08
2023-05-06T04:26:10.939Z,12.20
2023-05-06T04:28:38.759Z,12.35
2023-05-06T04:31:08.627Z,12.46
2023-05-06T04:33:36.609Z,12.56
2023-05-06T04:36:05.930Z,12.76
2023-05-06T04:38:34.027Z,12.86
2023-05-06T04:41:01.637Z,13.04
2023-05-06T04:43:29.143Z,13.14
2023-05-06T04:45:58.019Z,13.27
2023-05-06T04:48:26.928Z,13.43
2023-05-06T04:50:54.982Z,13.51
2023-05-06T04:53:22.022Z,13.62
2023-05-06T04:55:49.424Z,13.79
2023-05-06T04:58:16.831Z,13.89
2023-05-06T05:00:44.836Z,14.08
2023-05-06T05:03:12.504Z,14.22
2023-05-06T05:05:39.976Z,14.26
2023-05-06T05:08:13.283Z,14.43
2023-05-06T05:10:44.030Z,14.56
2023-05-06T05:13:11.917Z,14.73
2023-05-06T05:15:39.660Z,14.97
2023-05-06T05:18:07.210Z,15.12
2023-05-06T05:20:34.799Z,15.31
2023-05-06T05:23:02.197Z,15.45
2023-05-06T05:25:29.702Z,15.59
2023-05-06T05:27:56.957Z,15.74
2023-05-06T05:30:24.059Z,15.91
2023-05-06T05:32:51.623Z,15.98
2023-05-06T05:35:18.878Z,16.15
2023-05-06T05:37:46.990Z,16.52
2023-05-06T05:40:14.560Z,16.93
2023-05-06T05:42:42.163Z,17.43
2023-05-06T05:45:11.041Z,17.97
2023-05-06T05:47:39.912Z,18.31
2023-05-06T05:50:07.824Z,19.04
2023-05-06T05:52:35.788Z,19.50
2023-05-06T05:55:03.494Z,19.61
2023-05-06T05:57:31.083Z,19.46
2023-05-06T05:59:58.435Z,19.65
2023-05-06T06:02:27.145Z,19.05
2023-05-06T06:04:54.878Z,19.10
2023-05-06T06:07:22.142Z,19.37
2023-05-06T06:09:49.344Z,19.74
2023-05-06T06:12:18.098Z,20.02
2023-05-06T06:14:48.080Z,20.15
2023-05-06T06:17:16.393Z,20.29
2023-05-06T06:19:46.940Z,20.29
2023-05-06T06:22:14.069Z,20.39
2023-05-06T06:24:41.374Z,20.45
2023-05-06T06:27:08.789Z,20.67
2023-05-06T06:29:35.927Z,20.72
2023-05-06T06:32:03.914Z,20.99
2023-05-06T06:34:31.612Z,21.33
2023-05-06T06:36:59.157Z,21.74
2023-05-06T06:39:26.227Z,22.14
2023-05-06T06:41:56.852Z,22.48
2023-05-06T06:44:24.093Z,22.66
2023-05-06T06:46:51.154Z,22.76
2023-05-06T06:49:19.618Z,22.85
2023-05-06T06:51:46.790Z,23.22
2023-05-06T06:54:13.842Z,23.51
2023-05-06T06:56:41.202Z,23.41
2023-05-06T06:59:08.258Z,23.45
2023-05-06T07:01:35.373Z,23.26
2023-05-06T07:04:03.814Z,23.58
2023-05-06T07:06:32.000Z,23.71
2023-05-06T07:08:59.145Z,23.98
2023-05-06T07:11:26.534Z,24.31
2023-05-06T07:13:53.657Z,24.75
2023-05-06T07:16:20.869Z,25.78
2023-05-06T07:18:50.101Z,26.89
2023-05-06T07:21:17.534Z,27.49
2023-05-06T07:23:44.638Z,28.09
2023-05-06T07:26:12.019Z,27.92
2023-05-06T07:28:39.089Z,28.69
2023-05-06T07:31:06.195Z,28.97
2023-05-06T07:33:33.582Z,29.88
2023-05-06T07:36:00.945Z,29.84
2023-05-06T07:38:28.036Z,29.58
2023-05-06T07:40:55.456Z,29.31
2023-05-06T07:43:23.009Z,28.40
2023-05-06T07:45:50.584Z,29.41
2023-05-06T07:48:20.129Z,28.96
2023-05-06T07:50:47.523Z,29.75
2023-05-06T07:53:14.641Z,29.91
2023-05-06T07:55:42.426Z,29.45
2023-05-06T07:58:09.513Z,29.39
2023-05-06T08:00:36.637Z,29.43
2023-05-06T08:03:04.326Z,29.64
2023-05-06T08:05:31.585Z,29.46
2023-05-06T08:07:58.798Z,28.92
2023-05-06T08:10:26.492Z,29.63
2023-05-06T08:12:53.723Z,29.40
2023-05-06T08:15:21.007Z,28.62
2023-05-06T08:17:48.509Z,28.66
2023-05-06T08:20:15.752Z,27.96
2023-05-06T08:22:42.872Z,28.80
2023-05-06T08:25:10.447Z,29.19
2023-05-06T08:27:37.723Z,29.54
2023-05-06T08:30:05.657Z,29.66
2023-05-06T08:32:32.993Z,29.56
2023-05-06T08:35:00.804Z,29.29
2023-05-06T08:37:27.869Z,29.11
2023-05-06T08:39:55.190Z,29.54
2023-05-06T08:42:28.102Z,29.49
2023-05-06T08:44:56.373Z,29.42
2023-05-06T08:47:23.533Z,29.79
2023-05-06T08:49:50.620Z,29.32
2023-05-06T08:52:20.105Z,29.28
2023-05-06T08:54:48.119Z,29.29
2023-05-06T08:57:15.950Z,29.23
2023-05-06T08:59:43.466Z,29.50
2023-05-06T09:02:11.626Z,29.11
2023-05-06T09:04:39.701Z,28.63
2023-05-06T09:07:08.274Z,29.25
2023-05-06T09:09:35.885Z,29.40
2023-05-06T09:12:03.145Z,29.46
2023-05-06T09:14:30.890Z,29.36
2023-05-06T09:16:58.230Z,29.30
2023-05-06T09:19:25.753Z,29.76
2023-05-06T09:21:53.231Z,29.91
2023-05-06T09:24:21.072Z,29.54
2023-05-06T09:26:48.227Z,29.72
2023-05-06T09:29:15.736Z,29.15
2023-05-06T09:31:46.974Z,28.93
2023-05-06T09:34:15.566Z,28.91
2023-05-06T09:36:43.018Z,29.07
2023-05-06T09:39:10.327Z,29.67
2023-05-06T09:41:37.731Z,29.31
2023-05-06T09:44:05.711Z,29.54
2023-05-06T09:46:33.072Z,29.93
2023-05-06T09:49:00.560Z,29.51
2023-05-06T09:51:28.614Z,29.73
2023-05-06T09:53:57.188Z,29.22
2023-05-06T09:56:25.207Z,29.11
2023-05-06T09:58:52.790Z,28.92
2023-05-06T10:01:32.814Z,29.17
2023-05-06T10:04:09.663Z,29.71
2023-05-06T10:06:40.648Z,30.97
2023-05-06T10:09:09.385Z,31.61
2023-05-06T10:11:36.944Z,30.65
2023-05-06T10:14:04.333Z,30.40
2023-05-06T10:16:33.770Z,29.39
2023-05-06T10:19:03.866Z,28.75
2023-05-06T10:21:34.320Z,28.54
2023-05-06T10:24:10.682Z,28.30
2023-05-06T10:26:39.290Z,28.21
2023-05-06T10:29:09.983Z,27.58
2023-05-06T10:31:44.481Z,27.68
2023-05-06T10:34:11.640Z,27.59
2023-05-06T10:36:42.155Z,27.59
2023-05-06T10:39:10.323Z,27.83
2023-05-06T10:41:37.654Z,27.80
2023-05-06T10:44:06.162Z,28.50
2023-05-06T10:47:00.521Z,27.43
2023-05-06T10:49:29.074Z,28.03
2023-05-06T10:52:26.268Z,28.61
2023-05-06T10:54:56.239Z,28.84
2023-05-06T10:57:27.213Z,28.75
2023-05-06T10:59:55.601Z,28.58
2023-05-06T11:02:23.147Z,29.28
2023-05-06T11:04:53.035Z,29.86
2023-05-06T11:07:24.460Z,30.48
2023-05-06T11:09:54.764Z,30.31
2023-05-06T11:12:22.652Z,30.85
2023-05-06T11:14:49.778Z,30.89
2023-05-06T11:17:33.693Z,31.26
2023-05-06T11:20:26.320Z,30.53
2023-05-06T11:22:54.125Z,30.91
2023-05-06T11:25:41.536Z,31.26
2023-05-06T11:28:13.103Z,30.55
2023-05-06T11:30:53.755Z,29.50
2023-05-06T11:33:23.503Z,27.77
2023-05-06T11:35:50.846Z,27.31
2023-05-06T11:38:17.852Z,26.90
2023-05-06T11:40:44.928Z,26.45
2023-05-06T11:43:16.427Z,26.32
2023-05-06T11:45:47.866Z,26.06
2023-05-06T11:48:16.746Z,25.90
2023-05-06T11:50:47.523Z,25.47
2023-05-06T11:53:19.105Z,25.48
2023-05-06T11:55:47.875Z,25.50
2023-05-06T11:58:19.500Z,25.29
2023-05-06T12:00:53.130Z,24.98
2023-05-06T12:03:21.811Z,24.97
2023-05-06T12:05:50.846Z,24.48
2023-05-06T12:08:28.041Z,24.18
2023-05-06T12:11:02.456Z,24.05
2023-05-06T12:13:30.876Z,23.93
2023-05-06T12:16:00.065Z,23.77
2023-05-06T12:18:27.978Z,23.90
2023-05-06T12:20:56.440Z,23.89
2023-05-06T12:23:23.872Z,23.91
2023-05-06T12:26:08.303Z,23.49
2023-05-06T12:28:36.977Z,23.38
2023-05-06T12:31:23.394Z,23.53
2023-05-06T12:33:50.992Z,23.68
2023-05-06T12:36:19.169Z,23.68
2023-05-06T12:38:52.740Z,23.97
2023-05-06T12:41:21.502Z,24.10
2023-05-06T12:43:48.664Z,24.34
2023-05-06T12:46:17.099Z,24.24
2023-05-06T12:48:58.701Z,24.19
2023-05-06T12:51:27.101Z,24.34
2023-05-06T12:53:55.000Z,24.39
2023-05-06T12:56:22.595Z,24.08
2023-05-06T12:58:58.376Z,24.33
2023-05-06T13:01:25.927Z,24.43
2023-05-06T13:03:57.073Z,24.75
2023-05-06T13:06:24.479Z,24.74
2023-05-06T13:08:51.913Z,24.61
2023-05-06T13:11:19.015Z,24.57
2023-05-06T13:13:46.220Z,24.84
2023-05-06T13:16:13.873Z,24.75
2023-05-06T13:18:41.445Z,24.70
2023-05-06T13:21:08.575Z,24.29
2023-05-06T13:23:38.031Z,24.14
2023-05-06T13:26:06.220Z,24.19
2023-05-06T13:28:35.401Z,23.61
2023-05-06T13:31:03.079Z,23.54
2023-05-06T13:33:30.254Z,23.26
2023-05-06T13:35:57.657Z,22.63
2023-05-06T13:38:25.195Z,22.04
2023-05-06T13:40:53.631Z,21.68
2023-05-06T13:43:21.649Z,21.57
2023-05-06T13:45:49.171Z,21.16
2023-05-06T13:48:17.367Z,21.01
2023-05-06T13:50:46.022Z,20.94
2023-05-06T13:53:14.650Z,21.03
2023-05-06T13:55:43.014Z,20.80
2023-05-06T13:58:10.996Z,20.66
2023-05-06T14:00:38.512Z,20.60
2023-05-06T14:03:06.085Z,20.55
2023-05-06T14:05:33.390Z,20.58
2023-05-06T14:08:00.584Z,20.61
2023-05-06T14:10:28.128Z,20.48
2023-05-06T14:12:55.407Z,20.43
2023-05-06T14:15:22.621Z,20.25
2023-05-06T14:17:50.056Z,20.20
2023-05-06T14:20:17.225Z,20.03
2023-05-06T14:22:44.327Z,19.81
2023-05-06T14:25:12.202Z,19.45
2023-05-06T14:27:39.706Z,19.31
2023-05-06T14:30:09.448Z,19.29
2023-05-06T14:32:37.433Z,19.32
2023-05-06T14:35:05.073Z,19.30
2023-05-06T14:37:32.249Z,19.31
2023-05-06T14:39:59.640Z,19.24
2023-05-06T14:42:26.822Z,19.07
2023-05-06T14:44:54.211Z,18.96
2023-05-06T14:47:22.166Z,18.97
2023-05-06T14:49:49.228Z,18.84
2023-05-06T14:52:16.259Z,18.80
2023-05-06T14:54:44.716Z,18.73
2023-05-06T14:57:12.244Z,18.66
2023-05-06T14:59:39.306Z,18.58
2023-05-06T15:02:09.146Z,18.49
2023-05-06T15:04:36.904Z,18.38
2023-05-06T15:07:04.382Z,18.54
2023-05-06T15:09:31.964Z,18.67
2023-05-06T15:11:59.109Z,18.77
2023-05-06T15:14:26.614Z,18.79
2023-05-06T15:16:56.887Z,18.95
2023-05-06T15:19:24.413Z,18.92
2023-05-06T15:21:51.504Z,18.87
2023-05-06T15:24:18.810Z,18.91
2023-05-06T15:26:46.225Z,18.92
2023-05-06T15:29:13.413Z,19.03
2023-05-06T15:31:41.252Z,19.13
2023-05-06T15:34:09.905Z,19.24
2023-05-06T15:36:37.367Z,19.37
2023-05-06T15:39:04.904Z,19.50
2023-05-06T15:41:33.700Z,19.69
2023-05-06T15:44:02.359Z,19.99
2023-05-06T15:46:31.446Z,20.27
2023-05-06T15:49:22.409Z,20.61
2023-05-06T15:51:47.985Z,20.72
2023-05-06T15:54:18.283Z,21.12
2023-05-06T15:56:46.161Z,21.32
2023-05-06T15:59:13.377Z,21.46
2023-05-06T16:02:24.873Z,21.81
2023-05-06T16:06:57.897Z,22.15
2023-05-06T16:09:25.092Z,22.32
2023-05-06T16:11:54.572Z,22.23
2023-05-06T16:14:21.700Z,21.88
2023-05-06T16:16:48.911Z,21.51
2023-05-06T16:19:16.314Z,21.25
2023-05-06T16:21:43.484Z,20.92
2023-05-06T16:24:10.937Z,20.98
2023-05-06T16:26:38.835Z,20.97
2023-05-06T16:29:06.198Z,20.77
2023-05-06T16:31:34.058Z,20.64
2023-05-06T16:34:01.524Z,20.42
2023-05-06T16:36:28.826Z,20.24
2023-05-06T16:38:55.899Z,19.97
2023-05-06T16:41:23.372Z,19.73
2023-05-06T16:43:51.520Z,19.57
2023-05-06T16:46:18.717Z,19.56
2023-05-06T16:48:46.376Z,19.51
2023-05-06T16:51:15.729Z,19.31
2023-05-06T16:53:42.888Z,19.32
2023-05-06T16:56:10.754Z,19.30
2023-05-06T16:58:37.943Z,19.17
2023-05-06T17:01:07.965Z,19.15
2023-05-06T17:03:38.543Z,19.09
2023-05-06T17:06:05.922Z,19.04
2023-05-06T17:08:36.255Z,19.08
2023-05-06T17:11:07.632Z,19.09
2023-05-06T17:13:34.906Z,19.01
2023-05-06T17:16:02.022Z,18.91
2023-05-06T17:18:29.473Z,18.92
2023-05-06T17:20:57.702Z,18.92
2023-05-06T17:23:25.206Z,18.88
2023-05-06T17:25:52.578Z,18.82
2023-05-06T17:28:20.556Z,18.79
2023-05-06T17:30:47.672Z,18.68
2023-05-06T17:33:15.051Z,18.62
2023-05-06T17:35:42.321Z,18.60
2023-05-06T17:38:11.876Z,18.56
2023-05-06T17:40:39.335Z,18.47
2023-05-06T17:43:07.355Z,18.39
2023-05-06T17:45:34.645Z,18.30
2023-05-06T17:48:02.184Z,18.17
2023-05-06T17:50:29.354Z,18.05
2023-05-06T17:52:56.495Z,17.98
2023-05-06T17:55:24.120Z,18.05
2023-05-06T17:57:52.753Z,18.01
2023-05-06T18:00:20.057Z,17.95
2023-05-06T18:02:47.636Z,17.83
2023-05-06T18:05:16.745Z,17.79
2023-05-06T18:07:43.914Z,17.70
2023-05-06T18:10:11.438Z,17.68
2023-05-06T18:12:38.688Z,17.67
2023-05-06T18:15:06.547Z,17.57
2023-05-06T18:17:34.059Z,17.46
2023-05-06T18:20:01.165Z,17.37
2023-05-06T18:22:28.332Z,17.34
2023-05-06T18:24:56.017Z,17.31
2023-05-06T18:27:23.213Z,17.23
2023-05-06T18:29:50.424Z,17.20
2023-05-06T18:32:18.223Z,17.18
2023-05-06T18:34:45.406Z,17.15
2023-05-06T18:37:12.469Z,17.11
2023-05-06T18:39:41.673Z,17.10
2023-05-06T18:42:08.933Z,17.04
2023-05-06T18:44:36.067Z,16.90
2023-05-06T18:47:03.409Z,16.77
2023-05-06T18:49:31.180Z,16.65
2023-05-06T18:51:58.366Z,16.55
2023-05-06T18:54:25.779Z,16.51
2023-05-06T18:56:52.888Z,16.45
2023-05-06T18:59:20.250Z,16.38
2023-05-06T19:01:47.605Z,16.30
2023-05-06T19:04:14.884Z,16.23
2023-05-06T19:06:42.140Z,16.20
2023-05-06T19:09:09.568Z,16.21
2023-05-06T19:11:36.741Z,16.22
2023-05-06T19:14:03.767Z,16.28
2023-05-06T19:16:31.160Z,16.29
2023-05-06T19:18:58.243Z,16.26
2023-05-06T19:21:25.276Z,16.25
2023-05-06T19:23:54.121Z,16.23
2023-05-06T19:26:21.245Z,16.32
2023-05-06T19:28:48.778Z,16.39
2023-05-06T19:31:16.145Z,16.43
2023-05-06T19:33:43.461Z,16.47
2023-05-06T19:36:10.645Z,16.44
2023-05-06T19:38:38.227Z,16.45
2023-05-06T19:41:06.140Z,16.74
2023-05-06T19:43:33.322Z,16.75
2023-05-06T19:46:01.162Z,16.70
2023-05-06T19:48:28.523Z,16.72
2023-05-06T19:50:55.742Z,16.74
2023-05-06T19:53:23.960Z,16.79
2023-05-06T19:55:53.568Z,16.73
2023-05-06T19:58:20.732Z,16.68
2023-05-06T20:00:48.096Z,16.63
2023-05-06T20:03:15.644Z,16.59
2023-05-06T20:05:42.921Z,16.51
2023-05-06T20:08:11.427Z,16.36
2023-05-06T20:10:38.947Z,16.35
2023-05-06T20:13:06.942Z,16.23
2023-05-06T20:15:35.480Z,16.25
2023-05-06T20:18:03.160Z,16.20
2023-05-06T20:20:34.261Z,16.21
2023-05-06T20:23:04.752Z,16.20
2023-05-06T20:25:32.498Z,16.17
2023-05-06T20:27:59.951Z,16.14
2023-05-06T20:30:27.191Z,16.14
2023-05-06T20:32:54.819Z,16.09
2023-05-06T20:35:21.991Z,16.02
2023-05-06T20:37:49.084Z,16.07
2023-05-06T20:40:16.854Z,15.98
2023-05-06T20:42:43.970Z,15.86
2023-05-06T20:45:11.462Z,15.74
2023-05-06T20:47:39.152Z,15.68
2023-05-06T20:50:06.692Z,15.51
2023-05-06T20:52:34.218Z,15.42
2023-05-06T20:55:02.143Z,15.36
2023-05-06T20:57:29.435Z,15.32
2023-05-06T20:59:56.579Z,15.35
2023-05-06T21:02:24.150Z,15.27
2023-05-06T21:04:51.882Z,15.20
2023-05-06T21:07:18.936Z,15.16
2023-05-06T21:09:46.376Z,15.12
2023-05-06T21:12:13.454Z,15.06
2023-05-06T21:14:40.580Z,15.04
2023-05-06T21:17:08.451Z,15.02
2023-05-06T21:19:35.674Z,15.07
2023-05-06T21:22:02.943Z,15.04
2023-05-06T21:24:30.899Z,15.07
2023-05-06T21:26:58.148Z,15.04
2023-05-06T21:29:25.488Z,15.07
2023-05-06T21:31:52.822Z,15.05
2023-05-06T21:34:19.990Z,15.11
2023-05-06T21:36:47.028Z,15.04
2023-05-06T21:39:14.521Z,14.93
2023-05-06T21:41:41.581Z,14.91
2023-05-06T21:44:10.118Z,14.89
2023-05-06T21:46:40.613Z,14.92
2023-05-06T21:49:07.707Z,14.94
2023-05-06T21:51:36.035Z,14.97
2023-05-06T21:54:03.664Z,14.99
2023-05-06T21:56:30.717Z,14.98
2023-05-06T21:58:57.796Z,15.00
2023-05-06T22:01:29.204Z,15.07
2023-05-06T22:03:56.790Z,15.09
2023-05-06T22:06:24.190Z,15.13
2023-05-06T22:08:51.480Z,15.18
2023-05-06T22:11:18.835Z,15.21
2023-05-06T22:13:45.838Z,15.14
2023-05-06T22:16:13.164Z,15.05
2023-05-06T22:18:41.575Z,14.97
2023-05-06T22:21:09.820Z,15.09
2023-05-06T22:23:37.807Z,15.09
2023-05-06T22:26:05.234Z,15.02
2023-05-06T22:28:32.752Z,14.97
2023-05-06T22:31:00.075Z,14.88
2023-05-06T22:33:27.459Z,14.92
2023-05-06T22:35:55.558Z,15.02
2023-05-06T22:38:22.778Z,14.99
2023-05-06T22:40:50.405Z,14.83
2023-05-06T22:43:17.482Z,14.74
2023-05-06T22:45:44.593Z,14.65
2023-05-06T22:48:12.212Z,14.68
2023-05-06T22:50:39.340Z,14.62
2023-05-06T22:53:14.401Z,14.55
2023-05-06T22:55:43.098Z,14.54
2023-05-06T22:58:10.182Z,14.50
2023-05-06T23:00:37.367Z,14.58
2023-05-06T23:03:05.975Z,14.58
2023-05-06T23:05:33.241Z,14.68
2023-05-06T23:08:00.324Z,14.46
2023-05-06T23:10:28.031Z,14.34
2023-05-06T23:12:55.327Z,14.42
2023-05-06T23:15:23.097Z,14.36
2023-05-06T23:17:50.692Z,14.34
2023-05-06T23:20:17.964Z,14.27
2023-05-06T23:22:45.027Z,14.24
2023-05-06T23:25:12.515Z,14.23
2023-05-06T23:27:40.626Z,14.23
2023-05-06T23:30:08.867Z,14.33
2023-05-06T23:32:37.313Z,14.23
2023-05-06T23:35:05.002Z,14.14
2023-05-06T23:37:32.531Z,14.15
2023-05-06T23:39:59.913Z,14.12
2023-05-06T23:42:27.085Z,14.10
2023-05-06T23:44:54.176Z,13.98
2023-05-06T23:47:21.781Z,13.82
2023-05-06T23:49:48.921Z,13.74
2023-05-06T23:52:16.114Z,13.63
2023-05-06T23:54:43.971Z,13.58
2023-05-06T23:57:11.128Z,13.52
2023-05-06T23:59:38.212Z,13.54
